Time;durP1;ratioP1;P1;durP2;ratioP2;P2;SDS_P1;SDS_P2;PMS_P1;PMS_P2;Temp;Humidity;BMP_temperature;BMP_pressure;BME280_temperature;BME280_humidity;BME280_pressure;Samples;Min_cycle;Max_cycle;Signal;HPM_P1;HPM_P2
2022/07/25 00:00:34;;;;;;;3.00;1.60;;;22.60;99.90;;;;;;5051519;28;20079;-91
2022/07/25 00:03:03;;;;;;;3.70;1.38;;;22.60;99.90;;;;;;5045377;28;20049;-91
2022/07/25 00:05:29;;;;;;;1.67;1.48;;;22.60;99.90;;;;;;5037845;28;20556;-91
2022/07/25 00:07:54;;;;;;;3.47;1.45;;;22.60;99.90;;;;;;5036810;28;20139;-90
2022/07/25 00:10:20;;;;;;;2.13;1.73;;;22.60;99.90;;;;;;5021323;28;20480;-91
2022/07/25 00:12:46;;;;;;;2.85;1.58;;;22.60;99.90;;;;;;5036289;28;20106;-91
2022/07/25 00:15:12;;;;;;;3.70;1.90;;;22.60;99.90;;;;;;5037988;28;20491;-90
2022/07/25 00:17:38;;;;;;;2.88;1.77;;;22.50;99.90;;;;;;5037148;28;20507;-91
2022/07/25 00:20:05;;;;;;;3.00;1.80;;;22.60;99.90;;;;;;5036445;28;20191;-93
2022/07/25 00:22:32;;;;;;;2.80;1.77;;;22.50;99.90;;;;;;5037655;28;20072;-92
2022/07/25 00:24:58;;;;;;;2.60;1.90;;;22.50;99.90;;;;;;5036007;28;20134;-92
2022/07/25 00:27:24;;;;;;;2.67;1.65;;;22.60;99.90;;;;;;5037076;28;20079;-91
2022/07/25 00:29:49;;;;;;;5.07;1.80;;;22.50;99.90;;;;;;5036525;28;20473;-92
2022/07/25 00:32:15;;;;;;;4.22;1.80;;;22.50;99.90;;;;;;5037040;28;20103;-91
2022/07/25 00:34:41;;;;;;;2.67;1.67;;;22.50;99.90;;;;;;5036926;28;20050;-92
2022/07/25 00:37:07;;;;;;;2.80;1.80;;;22.50;99.90;;;;;;5037060;28;20044;-90
2022/07/25 00:39:32;;;;;;;3.28;1.98;;;22.50;99.90;;;;;;5036566;28;20045;-89
2022/07/25 00:41:58;;;;;;;4.35;1.88;;;22.40;99.90;;;;;;5035720;28;20045;-91
2022/07/25 00:44:29;;;;;;;4.22;1.95;;;22.40;99.90;;;;;;5036792;28;20044;-91
2022/07/25 00:46:59;;;;;;;5.13;2.33;;;22.40;99.90;;;;;;5052816;28;20102;-91
2022/07/25 00:49:25;;;;;;;3.40;2.38;;;22.40;99.90;;;;;;5035205;28;20104;-91
2022/07/25 00:51:52;;;;;;;2.67;2.17;;;22.30;99.90;;;;;;5037115;28;20102;-91
2022/07/25 00:54:20;;;;;;;2.55;1.92;;;22.30;99.90;;;;;;5037401;28;20037;-91
2022/07/25 00:56:46;;;;;;;4.63;1.90;;;22.30;99.90;;;;;;5036541;28;20439;-90
2022/07/25 00:59:12;;;;;;;6.85;2.42;;;22.30;99.90;;;;;;5018911;28;20044;-91
2022/07/25 01:01:38;;;;;;;3.38;1.92;;;22.20;99.90;;;;;;5036011;28;20307;-91
2022/07/25 01:04:04;;;;;;;3.47;2.08;;;22.20;99.90;;;;;;5034660;28;20052;-91
2022/07/25 01:06:31;;;;;;;3.80;1.83;;;22.20;99.90;;;;;;5036499;28;20123;-89
2022/07/25 01:08:57;;;;;;;3.95;2.30;;;22.20;99.90;;;;;;5035207;28;20044;-91
2022/07/25 01:11:24;;;;;;;5.47;2.20;;;22.10;99.90;;;;;;5035837;28;20102;-90
2022/07/25 01:13:50;;;;;;;2.70;1.92;;;22.10;99.90;;;;;;5036007;28;20478;-90
2022/07/25 01:16:16;;;;;;;3.58;2.35;;;22.00;99.90;;;;;;5035271;28;20048;-90
2022/07/25 01:18:41;;;;;;;5.80;2.10;;;22.00;99.90;;;;;;5052620;28;20127;-90
2022/07/25 01:21:07;;;;;;;3.60;1.83;;;22.00;99.90;;;;;;5017683;28;20132;-91
2022/07/25 01:23:33;;;;;;;4.22;2.58;;;22.00;99.90;;;;;;5035553;28;20153;-90
2022/07/25 01:25:59;;;;;;;4.07;2.55;;;22.00;99.90;;;;;;5017961;28;20098;-91
2022/07/25 01:28:24;;;;;;;4.03;2.70;;;21.90;99.90;;;;;;5019335;28;20048;-91
2022/07/25 01:30:50;;;;;;;4.63;2.63;;;21.90;99.90;;;;;;5035157;28;20541;-92
2022/07/25 01:33:20;;;;;;;3.55;2.30;;;21.80;99.90;;;;;;5035246;28;20454;-91
2022/07/25 01:35:47;;;;;;;4.15;3.15;;;21.80;99.90;;;;;;5035590;28;20094;-91
2022/07/25 01:38:12;;;;;;;4.40;2.65;;;21.80;99.90;;;;;;5017539;28;20774;-91
2022/07/25 01:40:39;;;;;;;4.50;2.40;;;21.80;99.90;;;;;;5036390;28;20040;-91
2022/07/25 01:43:04;;;;;;;3.50;3.08;;;21.70;99.90;;;;;;5056118;28;20041;-91
2022/07/25 01:45:30;;;;;;;4.93;2.92;;;21.70;99.90;;;;;;5046519;28;20051;-90
2022/07/25 01:47:56;;;;;;;8.05;3.10;;;21.60;99.90;;;;;;5035397;28;20045;-91
2022/07/25 01:50:22;;;;;;;6.57;3.58;;;21.60;99.90;;;;;;5034633;28;20044;-90
2022/07/25 01:52:47;;;;;;;5.18;3.83;;;21.60;99.90;;;;;;5018697;28;20041;-90
2022/07/25 01:55:13;;;;;;;4.80;3.78;;;21.50;99.90;;;;;;5050745;28;20040;-91
2022/07/25 01:57:39;;;;;;;5.20;3.40;;;21.50;99.90;;;;;;5034987;28;20048;-91
2022/07/25 02:00:08;;;;;;;5.50;3.88;;;21.50;99.90;;;;;;5033548;28;20075;-90
2022/07/25 02:02:33;;;;;;;5.88;3.78;;;21.50;99.90;;;;;;5035027;28;20044;-90
2022/07/25 02:04:59;;;;;;;5.13;3.97;;;21.50;99.90;;;;;;5034406;28;20483;-90
2022/07/25 02:07:25;;;;;;;5.07;3.92;;;21.40;99.90;;;;;;5034576;28;20052;-90
2022/07/25 02:09:51;;;;;;;5.80;4.45;;;21.40;99.90;;;;;;5051282;28;20506;-90
2022/07/25 02:12:17;;;;;;;7.13;4.97;;;21.40;99.90;;;;;;5034076;28;20032;-89
2022/07/25 02:14:42;;;;;;;6.45;4.03;;;21.40;99.90;;;;;;5018057;28;20480;-89
2022/07/25 02:17:08;;;;;;;5.60;4.10;;;21.30;99.90;;;;;;5033362;28;20047;-90
2022/07/25 02:19:35;;;;;;;4.65;3.85;;;21.30;99.90;;;;;;5034689;28;20040;-90
2022/07/25 02:22:01;;;;;;;4.60;3.67;;;21.30;99.90;;;;;;5033533;28;20483;-90
2022/07/25 02:24:26;;;;;;;8.38;3.50;;;21.30;99.90;;;;;;5017724;28;20044;-90
2022/07/25 02:26:52;;;;;;;6.22;3.72;;;21.30;99.90;;;;;;5033808;28;20054;-90
2022/07/25 02:29:18;;;;;;;5.30;3.58;;;21.20;99.90;;;;;;5033345;28;20076;-90
2022/07/25 02:31:43;;;;;;;4.35;3.83;;;21.20;99.90;;;;;;5034389;28;20538;-89
2022/07/25 02:34:09;;;;;;;7.38;3.83;;;21.00;99.90;;;;;;5032742;28;20055;-90
2022/07/25 02:36:35;;;;;;;6.35;3.70;;;21.20;99.90;;;;;;5017728;28;20464;-90
2022/07/25 02:39:01;;;;;;;5.25;3.25;;;20.70;99.90;;;;;;5033395;28;20123;-90
2022/07/25 02:41:27;;;;;;;8.43;3.55;;;21.30;99.90;;;;;;5017210;28;20083;-89
2022/07/25 02:43:52;;;;;;;5.32;3.55;;;21.30;99.90;;;;;;5034068;28;20079;-91
2022/07/25 02:46:18;;;;;;;6.28;3.85;;;21.20;99.90;;;;;;5016826;28;20040;-90
2022/07/25 02:48:44;;;;;;;7.70;4.13;;;21.30;99.90;;;;;;5017351;28;20484;-90
2022/07/25 02:51:09;;;;;;;7.43;4.22;;;21.30;99.90;;;;;;5016095;28;20074;-89
2022/07/25 02:53:35;;;;;;;5.05;4.13;;;21.40;99.90;;;;;;5017443;28;20087;-91
2022/07/25 02:56:01;;;;;;;5.75;4.32;;;21.50;99.90;;;;;;5033391;28;20051;-90
2022/07/25 02:58:26;;;;;;;6.28;3.92;;;21.50;99.90;;;;;;5017237;28;20519;-90
2022/07/25 03:00:52;;;;;;;3.88;3.47;;;21.50;99.90;;;;;;5033433;28;20055;-90
2022/07/25 03:03:18;;;;;;;5.82;3.85;;;21.50;99.90;;;;;;5017031;28;20136;-90
2022/07/25 03:05:44;;;;;;;3.80;3.40;;;21.60;99.90;;;;;;5034038;28;20399;-91
2022/07/25 03:08:10;;;;;;;5.20;4.00;;;21.60;99.90;;;;;;5032271;28;20048;-90
2022/07/25 03:10:35;;;;;;;6.80;3.80;;;21.50;99.90;;;;;;5033693;28;20036;-90
2022/07/25 03:13:02;;;;;;;4.63;3.25;;;21.50;99.90;;;;;;5016207;28;20040;-90
2022/07/25 03:15:27;;;;;;;4.93;3.33;;;21.50;99.90;;;;;;5033513;28;20127;-90
2022/07/25 03:17:53;;;;;;;5.72;3.50;;;21.40;99.90;;;;;;5016806;28;20144;-90
2022/07/25 03:20:19;;;;;;;4.30;3.40;;;21.30;99.90;;;;;;5017180;28;20079;-89
2022/07/25 03:22:44;;;;;;;5.63;3.42;;;21.30;99.90;;;;;;5036297;28;20051;-91
2022/07/25 03:25:10;;;;;;;4.47;3.63;;;21.20;99.90;;;;;;5035955;28;20072;-90
2022/07/25 03:27:36;;;;;;;7.38;4.13;;;21.20;99.90;;;;;;5036834;28;20048;-90
2022/07/25 03:30:02;;;;;;;9.10;3.63;;;21.20;99.90;;;;;;5019481;28;20388;-91
2022/07/25 03:32:28;;;;;;;8.65;3.47;;;21.20;99.90;;;;;;5037583;28;20052;-91
2022/07/25 03:34:54;;;;;;;5.22;4.00;;;21.10;99.90;;;;;;5036174;28;20492;-90
2022/07/25 03:37:19;;;;;;;5.07;3.80;;;21.70;99.90;;;;;;5037103;28;20052;-90
2022/07/25 03:39:45;;;;;;;4.47;3.80;;;21.00;99.90;;;;;;5036369;28;20036;-90
2022/07/25 03:42:11;;;;;;;5.57;3.53;;;21.00;99.90;;;;;;5036036;28;20114;-91
2022/07/25 03:44:37;;;;;;;5.68;3.90;;;20.90;99.90;;;;;;5020640;28;20480;-91
2022/07/25 03:47:04;;;;;;;5.15;4.18;;;20.90;99.90;;;;;;5036246;28;20104;-90
2022/07/25 03:49:30;;;;;;;5.50;4.40;;;20.90;99.90;;;;;;5037991;28;20043;-90
2022/07/25 03:51:55;;;;;;;7.88;4.20;;;20.90;99.90;;;;;;5037416;28;20410;-90
2022/07/25 03:54:21;;;;;;;9.23;4.53;;;20.90;99.90;;;;;;5037916;28;20045;-91
2022/07/25 03:56:49;;;;;;;8.00;5.20;;;20.80;99.90;;;;;;5021641;28;20041;-91
2022/07/25 03:59:20;;;;;;;5.97;4.78;;;20.80;99.90;;;;;;5037273;28;20071;-90
2022/07/25 04:01:47;;;;;;;5.75;4.90;;;20.80;99.90;;;;;;5037901;28;20137;-90
2022/07/25 04:04:14;;;;;;;5.65;4.95;;;20.80;99.90;;;;;;5020481;28;20068;-90
2022/07/25 04:06:40;;;;;;;5.95;5.25;;;20.90;99.90;;;;;;5040780;28;20048;-90
2022/07/25 04:09:07;;;;;;;6.43;5.45;;;20.90;99.90;;;;;;5039812;28;20044;-88
2022/07/25 04:11:34;;;;;;;7.25;4.88;;;20.90;99.90;;;;;;5040409;28;20106;-89
2022/07/25 04:14:01;;;;;;;7.20;5.32;;;20.90;99.90;;;;;;5039785;28;20048;-90
2022/07/25 04:16:28;;;;;;;15.68;6.43;;;20.90;99.90;;;;;;5040712;28;20075;-90
2022/07/25 04:18:54;;;;;;;11.15;5.60;;;21.00;99.90;;;;;;5024724;28;20098;-89
2022/07/25 04:21:20;;;;;;;9.45;5.60;;;21.30;99.90;;;;;;5040859;28;20478;-92
2022/07/25 04:23:47;;;;;;;5.65;5.05;;;21.10;99.90;;;;;;5059888;28;20040;-89
2022/07/25 04:26:13;;;;;;;5.50;4.95;;;21.10;99.90;;;;;;5043909;28;20048;-90
2022/07/25 04:28:39;;;;;;;12.73;5.53;;;21.20;99.90;;;;;;5061638;28;20079;-91
2022/07/25 04:31:05;;;;;;;9.75;5.20;;;21.20;99.90;;;;;;5059309;28;20049;-89
2022/07/25 04:33:30;;;;;;;8.57;5.43;;;21.20;99.90;;;;;;5043690;28;20041;-90
2022/07/25 04:35:56;;;;;;;9.10;5.78;;;21.30;99.90;;;;;;5021246;28;20135;-89
2022/07/25 04:38:22;;;;;;;10.02;6.38;;;21.30;99.90;;;;;;5045538;28;20090;-90
2022/07/25 04:40:47;;;;;;;7.63;5.28;;;21.30;99.90;;;;;;5060938;28;20213;-94
2022/07/25 04:43:13;;;;;;;9.63;5.82;;;21.40;99.90;;;;;;5019598;28;20093;-91
2022/07/25 04:45:39;;;;;;;9.35;6.30;;;21.40;99.90;;;;;;5037461;28;20124;-92
2022/07/25 04:48:05;;;;;;;7.57;5.55;;;21.50;99.90;;;;;;5036042;28;20040;-92
2022/07/25 04:50:31;;;;;;;8.10;5.60;;;21.50;99.90;;;;;;5037420;28;20495;-93
2022/07/25 04:52:57;;;;;;;7.50;5.60;;;21.60;99.90;;;;;;5035966;28;20040;-90
2022/07/25 04:55:22;;;;;;;10.20;7.18;;;21.70;99.90;;;;;;5053175;28;20041;-89
2022/07/25 04:57:48;;;;;;;10.07;6.82;;;21.70;99.90;;;;;;5055583;28;20040;-90
2022/07/25 05:00:14;;;;;;;11.60;5.72;;;21.70;99.90;;;;;;5022791;28;20123;-90
2022/07/25 05:02:40;;;;;;;9.25;5.70;;;21.80;99.90;;;;;;5053139;28;20135;-90
2022/07/25 05:05:07;;;;;;;7.63;6.20;;;21.80;99.90;;;;;;5051626;28;20057;-89
2022/07/25 05:07:34;;;;;;;8.07;5.28;;;21.80;99.90;;;;;;5053765;28;20434;-94
2022/07/25 05:10:00;;;;;;;9.57;6.07;;;21.80;99.90;;;;;;5036222;28;20068;-91
2022/07/25 05:12:26;;;;;;;10.07;6.18;;;21.80;99.90;;;;;;5036443;28;20048;-92
2022/07/25 05:14:53;;;;;;;10.70;6.13;;;21.80;99.90;;;;;;5036762;28;20040;-92
2022/07/25 05:17:18;;;;;;;9.45;6.45;;;21.90;99.90;;;;;;5037300;28;20407;-91
2022/07/25 05:19:44;;;;;;;8.18;6.45;;;21.90;99.90;;;;;;5038045;28;20109;-92
2022/07/25 05:22:09;;;;;;;10.63;6.43;;;22.00;99.90;;;;;;5035485;28;20049;-94
2022/07/25 05:24:36;;;;;;;9.18;5.85;;;22.00;99.90;;;;;;5020582;28;20044;-90
2022/07/25 05:27:03;;;;;;;8.27;6.78;;;22.00;99.90;;;;;;5052462;28;20577;-92
2022/07/25 05:29:29;;;;;;;7.97;5.95;;;22.10;99.90;;;;;;5052600;28;20403;-93
2022/07/25 05:31:55;;;;;;;11.00;6.90;;;22.20;99.90;;;;;;5053394;28;20036;-92
2022/07/25 05:34:21;;;;;;;12.48;7.05;;;22.20;99.90;;;;;;5072465;28;20455;-93
2022/07/25 05:36:46;;;;;;;13.70;6.55;;;22.30;99.90;;;;;;5053174;28;20345;-91
2022/07/25 05:39:12;;;;;;;10.57;6.72;;;22.30;99.90;;;;;;5035682;28;20055;-93
2022/07/25 05:41:38;;;;;;;10.05;7.50;;;22.30;99.90;;;;;;5036983;28;20455;-89
2022/07/25 05:44:04;;;;;;;12.30;7.00;;;22.30;99.90;;;;;;5054661;28;20127;-87
2022/07/25 05:46:34;;;;;;;10.20;6.65;;;22.30;99.90;;;;;;5040383;28;20052;-89
2022/07/25 05:48:59;;;;;;;8.52;7.15;;;22.30;99.90;;;;;;5056543;28;20052;-89
2022/07/25 05:51:26;;;;;;;12.20;8.10;;;22.30;99.90;;;;;;5057057;28;20045;-89
2022/07/25 05:53:52;;;;;;;8.77;7.88;;;22.40;99.90;;;;;;5058440;28;20700;-90
2022/07/25 05:56:18;;;;;;;10.95;8.50;;;22.40;99.90;;;;;;5056905;28;20139;-89
2022/07/25 05:58:44;;;;;;;10.50;7.93;;;22.40;99.90;;;;;;5057714;28;20477;-91
2022/07/25 06:01:14;;;;;;;12.10;7.93;;;22.40;99.90;;;;;;5038616;28;20079;-90
2022/07/25 06:03:41;;;;;;;10.70;8.25;;;22.40;99.90;;;;;;5038904;28;20088;-89
2022/07/25 06:06:07;;;;;;;12.18;8.68;;;22.40;99.90;;;;;;5055098;28;20055;-89
2022/07/25 06:08:37;;;;;;;10.63;8.45;;;22.50;99.90;;;;;;5035115;28;20446;-90
2022/07/25 06:11:03;;;;;;;9.45;8.10;;;22.50;99.90;;;;;;5035785;28;20422;-89
2022/07/25 06:13:30;;;;;;;12.13;9.02;;;22.50;99.90;;;;;;5049914;28;20532;-88
2022/07/25 06:15:56;;;;;;;10.93;8.57;;;22.50;99.90;;;;;;5052033;28;20127;-90
2022/07/25 06:18:22;;;;;;;10.25;8.27;;;22.50;99.90;;;;;;5060651;28;20071;-89
2022/07/25 06:20:47;;;;;;;9.98;7.78;;;22.60;99.90;;;;;;5050343;28;20055;-89
2022/07/25 06:23:13;;;;;;;11.05;8.35;;;22.60;99.90;;;;;;5034442;28;20044;-89
2022/07/25 06:25:39;;;;;;;13.02;8.68;;;22.60;99.90;;;;;;5033828;28;20436;-89
2022/07/25 06:28:05;;;;;;;11.73;8.25;;;22.70;99.90;;;;;;5050847;28;20056;-89
2022/07/25 06:30:31;;;;;;;11.70;7.68;;;22.80;99.90;;;;;;5032702;28;20036;-90
2022/07/25 06:32:56;;;;;;;9.55;8.55;;;22.80;99.90;;;;;;5034816;28;20055;-90
2022/07/25 06:35:22;;;;;;;12.68;7.80;;;22.90;99.90;;;;;;5049426;28;20407;-89
2022/07/25 06:37:48;;;;;;;11.27;7.72;;;22.90;99.90;;;;;;5051334;28;20499;-89
2022/07/25 06:40:14;;;;;;;15.85;7.20;;;23.00;99.90;;;;;;5049683;28;20507;-89
2022/07/25 06:42:42;;;;;;;11.73;8.05;;;23.20;99.90;;;;;;5049914;28;20037;-89
2022/07/25 06:45:09;;;;;;;13.35;7.90;;;23.30;99.90;;;;;;5050444;28;20045;-89
2022/07/25 06:47:36;;;;;;;9.18;6.65;;;23.40;99.90;;;;;;5048264;28;20087;-90
2022/07/25 06:50:02;;;;;;;10.65;7.00;;;23.70;99.90;;;;;;5034328;28;20090;-91
2022/07/25 06:52:28;;;;;;;9.43;7.72;;;23.80;99.90;;;;;;5032899;28;20045;-91
2022/07/25 06:54:54;;;;;;;8.55;6.68;;;23.90;99.90;;;;;;5050605;28;20102;-91
2022/07/25 06:57:19;;;;;;;8.15;7.35;;;24.10;99.90;;;;;;5049552;28;20051;-92
2022/07/25 06:59:45;;;;;;;7.82;6.88;;;24.20;99.90;;;;;;5033684;28;20083;-91
2022/07/25 07:02:11;;;;;;;7.75;6.95;;;24.20;99.90;;;;;;5050386;28;20393;-90
2022/07/25 07:04:38;;;;;;;8.95;7.55;;;24.20;99.90;;;;;;5032914;28;20044;-90
2022/07/25 07:07:03;;;;;;;13.77;8.02;;;24.10;99.90;;;;;;5035197;28;20090;-92
2022/07/25 07:09:29;;;;;;;9.00;7.38;;;24.00;99.90;;;;;;5054752;28;20032;-92
2022/07/25 07:11:55;;;;;;;7.15;6.13;;;24.00;99.90;;;;;;5062000;28;20078;-92
2022/07/25 07:14:21;;;;;;;8.48;7.45;;;24.00;99.90;;;;;;5052848;28;20300;-91
2022/07/25 07:16:49;;;;;;;12.35;7.22;;;24.00;99.90;;;;;;5050541;28;20090;-93
2022/07/25 07:19:15;;;;;;;13.77;6.82;;;24.10;99.90;;;;;;5033847;28;20036;-91
2022/07/25 07:21:41;;;;;;;9.98;6.80;;;24.10;99.90;;;;;;5048825;28;20066;-91
2022/07/25 07:24:07;;;;;;;11.30;8.23;;;24.10;99.90;;;;;;5034105;28;20105;-91
2022/07/25 07:26:33;;;;;;;10.40;7.88;;;24.20;99.90;;;;;;5032376;28;20055;-92
2022/07/25 07:28:59;;;;;;;14.10;7.53;;;24.30;99.90;;;;;;5034282;28;20044;-91
2022/07/25 07:31:25;;;;;;;12.57;7.28;;;24.30;99.90;;;;;;5049944;28;20150;-92
2022/07/25 07:33:51;;;;;;;9.23;7.40;;;24.40;99.90;;;;;;5051036;28;20131;-91
2022/07/25 07:36:20;;;;;;;7.88;6.70;;;24.40;99.90;;;;;;5050837;28;20084;-93
2022/07/25 07:38:47;;;;;;;10.05;7.40;;;24.50;99.90;;;;;;5049449;28;20033;-92
2022/07/25 07:41:13;;;;;;;9.82;7.18;;;24.60;99.90;;;;;;5050628;28;20040;-91
2022/07/25 07:43:38;;;;;;;6.28;5.40;;;24.60;99.90;;;;;;5032911;28;20446;-92
2022/07/25 07:46:04;;;;;;;9.98;6.13;;;24.70;99.90;;;;;;5050808;28;20079;-92
2022/07/25 07:48:31;;;;;;;12.80;6.00;;;24.80;99.90;;;;;;5016229;28;20044;-92
2022/07/25 07:50:57;;;;;;;8.95;5.57;;;24.80;99.90;;;;;;5033530;28;20601;-93
2022/07/25 07:55:42;;;;;;;7.57;5.75;;;24.80;99.90;;;;;;5050327;28;20044;-92
2022/07/25 07:56:11;;;;;;;10.73;6.00;;;24.70;99.90;;;;;;5048745;28;20090;-92
2022/07/25 07:58:37;;;;;;;10.05;5.57;;;24.80;99.90;;;;;;5051734;28;20436;-92
2022/07/25 08:01:03;;;;;;;6.32;5.20;;;24.80;99.90;;;;;;5052604;28;20048;-92
2022/07/25 08:03:28;;;;;;;5.20;4.70;;;24.90;99.90;;;;;;5054563;28;20419;-92
2022/07/25 08:05:54;;;;;;;6.30;5.40;;;25.00;99.90;;;;;;5035900;28;20036;-91
2022/07/25 08:08:20;;;;;;;5.72;4.50;;;25.00;99.90;;;;;;5053341;28;20048;-92
2022/07/25 08:10:47;;;;;;;9.07;4.93;;;25.00;99.90;;;;;;5037854;28;20043;-91
2022/07/25 08:13:23;;;;;;;6.10;4.55;;;25.00;99.90;;;;;;5036672;28;20403;-92
2022/07/25 08:15:51;;;;;;;8.27;4.88;;;25.00;99.90;;;;;;5037990;28;20142;-92
2022/07/25 08:18:18;;;;;;;7.85;4.65;;;25.00;99.90;;;;;;5035533;28;20032;-91
2022/07/25 08:20:45;;;;;;;9.05;4.75;;;25.10;99.90;;;;;;5037244;28;20037;-91
2022/07/25 08:23:11;;;;;;;9.55;5.05;;;25.20;99.90;;;;;;5053042;28;20044;-90
2022/07/25 08:25:37;;;;;;;6.95;4.78;;;25.30;99.90;;;;;;5052361;28;20037;-91
2022/07/25 08:28:05;;;;;;;6.35;4.90;;;25.40;99.90;;;;;;5036830;28;20056;-90
2022/07/25 08:30:31;;;;;;;6.30;4.35;;;25.40;99.90;;;;;;5034857;28;20055;-90
2022/07/25 08:33:01;;;;;;;10.30;5.25;;;25.50;99.90;;;;;;5053718;28;20476;-90
2022/07/25 08:35:28;;;;;;;7.90;4.22;;;25.40;99.90;;;;;;5035020;28;20037;-90
2022/07/25 08:37:54;;;;;;;7.25;4.43;;;25.30;99.90;;;;;;5053376;28;20472;-90
2022/07/25 08:40:22;;;;;;;8.95;4.78;;;25.20;99.90;;;;;;5052269;28;20143;-90
2022/07/25 08:42:49;;;;;;;6.22;3.83;;;25.10;99.90;;;;;;5052481;28;20033;-90
2022/07/25 08:45:16;;;;;;;10.18;3.88;;;24.90;99.90;;;;;;5052884;28;20039;-89
2022/07/25 08:47:43;;;;;;;8.70;4.22;;;24.80;99.90;;;;;;5051408;28;20048;-88
2022/07/25 08:50:12;;;;;;;5.07;3.67;;;24.70;99.90;;;;;;5036667;28;20075;-89
2022/07/25 08:52:38;;;;;;;9.07;3.83;;;24.60;99.90;;;;;;5034952;28;20052;-90
2022/07/25 08:55:06;;;;;;;3.78;2.85;;;24.50;99.90;;;;;;5052704;28;20480;-90
2022/07/25 08:57:34;;;;;;;5.28;3.00;;;24.50;99.90;;;;;;5052014;28;20047;-90
2022/07/25 09:00:01;;;;;;;4.47;2.95;;;24.40;99.90;;;;;;5052116;28;20056;-90
2022/07/25 09:02:27;;;;;;;6.30;3.13;;;24.40;99.90;;;;;;5036227;28;20064;-90
2022/07/25 09:04:54;;;;;;;6.68;3.45;;;24.30;99.90;;;;;;5034903;28;20052;-90
2022/07/25 09:07:49;;;;;;;4.05;2.83;;;24.30;99.90;;;;;;5053140;28;20043;-90
2022/07/25 09:10:24;;;;;;;6.10;2.70;;;24.30;99.90;;;;;;5039022;28;20403;-90
2022/07/25 09:13:16;;;;;;;3.65;2.17;;;24.40;99.90;;;;;;5035988;28;20105;-90
2022/07/25 09:15:55;;;;;;;3.92;1.70;;;24.50;99.90;;;;;;5055483;28;20051;-90
2022/07/25 09:18:26;;;;;;;8.02;1.35;;;24.50;99.90;;;;;;5042375;28;20045;-90
2022/07/25 09:21:00;;;;;;;4.43;1.73;;;24.60;99.90;;;;;;5053613;28;20372;-89
2022/07/25 09:23:28;;;;;;;2.97;1.38;;;24.90;99.90;;;;;;5052362;28;20085;-90
2022/07/25 09:26:05;;;;;;;4.10;1.55;;;25.00;99.90;;;;;;5051811;28;20094;-93
2022/07/25 09:28:32;;;;;;;1.85;1.38;;;24.90;99.90;;;;;;5053088;28;20133;-91
2022/07/25 09:30:59;;;;;;;4.45;1.25;;;24.80;99.90;;;;;;5035483;28;20198;-90
2022/07/25 09:33:26;;;;;;;2.17;1.30;;;24.80;99.90;;;;;;5054190;28;20048;-90
2022/07/25 09:35:55;;;;;;;7.28;1.80;;;24.70;99.90;;;;;;5051994;28;20051;-91
2022/07/25 09:38:22;;;;;;;2.15;1.40;;;24.80;99.90;;;;;;5052021;28;20491;-91
2022/07/25 09:41:01;;;;;;;6.05;1.48;;;24.70;99.90;;;;;;5053150;28;20135;-91
2022/07/25 09:43:41;;;;;;;6.57;1.73;;;24.80;99.90;;;;;;5035302;28;20068;-91
2022/07/25 09:46:08;;;;;;;1.77;1.08;;;25.00;99.90;;;;;;5036457;28;20079;-90
2022/07/25 09:48:36;;;;;;;2.75;1.00;;;25.00;99.90;;;;;;5052053;28;20105;-91
2022/07/25 09:51:02;;;;;;;5.65;1.33;;;25.00;99.90;;;;;;5051542;28;20054;-91
2022/07/25 09:53:28;;;;;;;1.42;0.90;;;25.10;99.90;;;;;;5052900;28;20127;-89
2022/07/25 09:55:55;;;;;;;4.35;0.90;;;25.20;99.90;;;;;;5050743;28;20131;-91
2022/07/25 09:58:26;;;;;;;3.20;1.40;;;25.30;99.90;;;;;;5035665;28;20045;-91
2022/07/25 10:00:59;;;;;;;2.10;0.80;;;25.30;99.90;;;;;;5050241;28;20052;-91
2022/07/25 10:03:50;;;;;;;1.55;0.82;;;25.40;99.90;;;;;;5054094;28;20573;-91
2022/07/25 10:06:39;;;;;;;2.20;1.10;;;25.40;99.90;;;;;;5057775;28;20071;-91
2022/07/25 10:09:14;;;;;;;1.42;1.08;;;25.30;99.00;;;;;;5053817;28;20135;-91
2022/07/25 10:12:00;;;;;;;2.60;1.02;;;25.30;99.90;;;;;;5037093;28;20070;-90
2022/07/25 10:14:26;;;;;;;1.48;0.73;;;25.30;99.90;;;;;;5038870;28;20080;-91
2022/07/25 10:16:55;;;;;;;2.20;0.65;;;25.20;99.90;;;;;;5042757;28;20044;-92
2022/07/25 10:19:46;;;;;;;2.55;1.20;;;25.20;99.90;;;;;;5042207;28;20064;-91
2022/07/25 10:22:13;;;;;;;1.33;0.80;;;25.30;99.90;;;;;;5058621;28;20449;-93
2022/07/25 10:24:44;;;;;;;3.30;1.08;;;25.10;99.90;;;;;;5058525;28;20036;-90
2022/07/25 10:27:12;;;;;;;1.90;1.00;;;25.00;99.90;;;;;;5053802;28;20040;-91
2022/07/25 10:29:41;;;;;;;2.25;1.42;;;24.80;99.90;;;;;;5053353;28;20072;-92
2022/07/25 10:32:10;;;;;;;2.35;1.30;;;24.60;99.90;;;;;;5037102;28;20048;-91
2022/07/25 10:34:37;;;;;;;3.38;1.08;;;24.50;99.90;;;;;;5050300;28;20055;-91
2022/07/25 10:37:19;;;;;;;3.30;0.95;;;24.40;99.90;;;;;;5055046;28;20047;-92
2022/07/25 10:39:45;;;;;;;;;;;24.30;99.90;;;;;;5058699;28;20534;-92
2022/07/25 10:42:16;;;;;;;4.72;1.48;;;24.20;99.90;;;;;;5038044;28;19927;-90
2022/07/25 10:45:04;;;;;;;4.25;1.52;;;24.00;99.90;;;;;;5036907;28;20051;-90
2022/07/25 10:47:37;;;;;;;2.75;1.27;;;23.80;99.90;;;;;;5036475;28;20508;-91
2022/07/25 10:50:02;;;;;;;;;;;23.60;99.90;;;;;;5037276;28;20072;-91
2022/07/25 10:52:30;;;;;;;9.93;2.05;;;23.50;99.90;;;;;;5050098;28;20419;-92
2022/07/25 10:54:58;;;;;;;3.05;1.67;;;23.40;99.90;;;;;;5035176;28;20082;-93
2022/07/25 10:57:25;;;;;;;2.00;1.50;;;23.40;99.90;;;;;;5051630;28;20421;-94
2022/07/25 10:59:51;;;;;;;5.13;1.67;;;23.30;99.90;;;;;;5035811;28;20103;-93
2022/07/25 11:02:22;;;;;;;3.60;1.50;;;23.30;99.90;;;;;;5036036;28;21425;-94
2022/07/25 11:05:00;;;;;;;3.78;1.67;;;23.50;99.90;;;;;;5034650;28;20080;-91
2022/07/25 11:07:27;;;;;;;5.32;1.60;;;23.80;99.90;;;;;;5035171;28;20131;-92
2022/07/25 11:10:01;;;;;;;2.28;1.20;;;23.90;99.90;;;;;;5035148;28;20170;-93
2022/07/25 11:12:27;;;;;;;2.95;1.17;;;24.00;99.90;;;;;;5055199;28;20048;-93
2022/07/25 11:15:06;;;;;;;2.45;1.23;;;24.10;99.90;;;;;;5044034;28;20045;-92
2022/07/25 11:17:33;;;;;;;3.95;1.38;;;24.20;99.90;;;;;;5062153;28;20125;-91
2022/07/25 11:20:10;;;;;;;3.38;1.13;;;24.20;99.90;;;;;;5056790;28;20037;-91
2022/07/25 11:22:36;;;;;;;4.35;1.45;;;24.20;99.90;;;;;;5056482;28;20340;-93
2022/07/25 11:25:15;;;;;;;4.82;1.83;;;24.20;99.90;;;;;;5057975;28;20574;-91
2022/07/25 11:27:40;;;;;;;4.38;0.90;;;24.20;99.90;;;;;;5039338;28;20040;-92
2022/07/25 11:30:08;;;;;;;3.50;1.30;;;24.20;99.90;;;;;;5060202;28;20124;-92
2022/07/25 11:32:39;;;;;;;5.82;1.30;;;24.30;99.90;;;;;;5038015;28;20048;-90
2022/07/25 11:35:05;;;;;;;5.88;1.10;;;24.40;99.90;;;;;;5037504;28;20041;-92
2022/07/25 11:37:36;;;;;;;5.90;1.00;;;24.40;99.90;;;;;;5055543;28;20059;-93
2022/07/25 11:40:03;;;;;;;5.20;1.38;;;24.60;99.90;;;;;;5055455;28;20048;-93
2022/07/25 11:42:38;;;;;;;5.63;1.50;;;24.70;99.90;;;;;;5034717;28;20052;-92
2022/07/25 11:45:25;;;;;;;6.45;1.48;;;24.80;99.90;;;;;;5055263;28;20048;-93
2022/07/25 11:48:05;;;;;;;2.58;1.13;;;25.00;99.90;;;;;;5034677;28;20066;-92
2022/07/25 11:50:33;;;;;;;8.35;1.55;;;25.10;99.90;;;;;;5054580;28;20064;-91
2022/07/25 11:53:01;;;;;;;4.97;1.48;;;25.10;99.90;;;;;;5052120;28;20415;-93
2022/07/25 11:55:32;;;;;;;5.22;1.30;;;25.00;99.90;;;;;;5033836;28;20049;-92
2022/07/25 11:58:00;;;;;;;3.85;1.58;;;24.80;99.90;;;;;;5051626;28;20501;-93
2022/07/25 12:00:27;;;;;;;7.82;1.60;;;24.50;99.90;;;;;;5050435;28;20040;-91
2022/07/25 12:02:53;;;;;;;4.00;1.10;;;24.30;99.90;;;;;;5051704;28;20048;-91
2022/07/25 12:05:31;;;;;;;4.80;1.33;;;24.20;99.90;;;;;;5049415;28;20045;-92
2022/07/25 12:07:59;;;;;;;8.73;1.80;;;24.30;99.90;;;;;;5055029;28;20048;-93
2022/07/25 12:10:36;;;;;;;5.05;0.90;;;24.50;99.90;;;;;;5046731;28;20048;-93
2022/07/25 12:13:03;;;;;;;5.10;1.33;;;24.60;99.90;;;;;;5064817;28;20037;-93
2022/07/25 12:15:38;;;;;;;5.10;1.30;;;24.70;99.90;;;;;;5067781;28;20043;-92
2022/07/25 12:18:08;;;;;;;3.83;1.38;;;24.70;99.90;;;;;;5054813;28;20112;-93
2022/07/25 12:20:38;;;;;;;6.05;1.35;;;24.60;99.90;;;;;;5043373;28;20079;-92
2022/07/25 12:23:05;;;;;;;6.97;1.23;;;24.60;99.90;;;;;;5061034;28;20052;-93
2022/07/25 12:25:45;;;;;;;8.20;1.50;;;24.60;99.90;;;;;;5043371;28;20044;-91
2022/07/25 12:28:11;;;;;;;10.38;1.42;;;24.70;99.90;;;;;;5057428;28;20524;-92
2022/07/25 12:30:39;;;;;;;5.45;1.25;;;24.70;99.90;;;;;;5055857;28;20036;-91
2022/07/25 12:33:05;;;;;;;3.63;1.23;;;24.70;99.90;;;;;;5038433;28;20059;-91
2022/07/25 12:35:31;;;;;;;5.85;1.10;;;24.70;99.90;;;;;;5050073;28;20044;-92
2022/07/25 12:37:57;;;;;;;5.93;1.33;;;24.60;99.90;;;;;;5050472;28;20044;-90
2022/07/25 12:40:23;;;;;;;7.53;1.38;;;24.60;99.90;;;;;;5049447;28;20408;-91
2022/07/25 12:42:49;;;;;;;5.13;1.15;;;24.40;99.90;;;;;;5051349;28;20040;-93
2022/07/25 12:45:21;;;;;;;3.55;0.98;;;24.40;99.90;;;;;;5051337;28;20048;-93
2022/07/25 12:47:47;;;;;;;4.50;1.98;;;24.30;99.90;;;;;;5035623;28;20044;-91